createdAt,value
2023-02-27T00:00:14.837Z,1.76
2023-02-27T00:06:59.038Z,1.80
2023-02-27T00:12:05.173Z,1.83
2023-02-27T00:17:10.761Z,1.81
2023-02-27T00:22:44.078Z,1.80
2023-02-27T00:28:01.705Z,1.74
2023-02-27T00:33:15.636Z,1.68
2023-02-27T00:38:42.538Z,1.63
2023-02-27T00:43:54.977Z,1.64
2023-02-27T00:49:01.388Z,1.64
2023-02-27T00:54:09.831Z,1.67
2023-02-27T00:59:21.803Z,1.72
2023-02-27T01:04:35.532Z,1.72
2023-02-27T01:10:04.939Z,1.66
2023-02-27T01:16:14.466Z,1.58
2023-02-27T01:22:04.973Z,1.51
2023-02-27T01:27:08.757Z,1.46
2023-02-27T01:32:13.737Z,1.48
2023-02-27T01:37:37.482Z,1.52
2023-02-27T01:43:34.544Z,1.54
2023-02-27T01:49:02.091Z,1.55
2023-02-27T01:54:27.060Z,1.48
2023-02-27T01:59:42.586Z,1.41
2023-02-27T02:04:50.525Z,1.40
2023-02-27T02:10:04.899Z,1.40
2023-02-27T02:15:17.181Z,1.45
2023-02-27T02:21:24.456Z,1.46
2023-02-27T02:27:22.307Z,1.41
2023-02-27T02:33:41.242Z,1.37
2023-02-27T02:38:56.814Z,1.30
2023-02-27T02:44:07.204Z,1.25
2023-02-27T02:49:53.254Z,1.24
2023-02-27T02:55:22.581Z,1.26
2023-02-27T03:00:31.845Z,1.29
2023-02-27T03:05:47.117Z,1.29
2023-02-27T03:10:58.346Z,1.26
2023-02-27T03:16:24.824Z,1.25
2023-02-27T03:21:36.591Z,1.23
2023-02-27T03:27:09.548Z,1.24
2023-02-27T03:32:50.434Z,1.27
2023-02-27T03:38:50.772Z,1.31
2023-02-27T03:44:20.239Z,1.38
2023-02-27T03:49:27.962Z,1.38
2023-02-27T03:54:50.458Z,1.36
2023-02-27T03:59:57.054Z,1.29
2023-02-27T04:05:00.309Z,1.24
2023-02-27T04:11:49.665Z,1.25
2023-02-27T04:17:48.818Z,1.32
2023-02-27T04:23:34.580Z,1.33
2023-02-27T04:28:47.209Z,1.31
2023-02-27T04:34:11.043Z,1.28
2023-02-27T04:39:44.831Z,1.24
2023-02-27T04:44:54.960Z,1.25
2023-02-27T04:50:08.044Z,1.30
2023-02-27T04:55:20.423Z,1.31
2023-02-27T05:00:32.230Z,1.36
2023-02-27T05:05:40.232Z,1.35
2023-02-27T05:11:01.858Z,1.35
2023-02-27T05:17:03.662Z,1.24
2023-02-27T05:22:33.533Z,1.14
2023-02-27T05:28:03.231Z,1.14
2023-02-27T05:34:13.285Z,1.16
2023-02-27T05:39:41.410Z,1.21
2023-02-27T05:46:05.572Z,1.18
2023-02-27T05:51:38.955Z,1.12
2023-02-27T05:56:52.319Z,1.04
2023-02-27T06:01:55.972Z,1.02
2023-02-27T06:07:14.905Z,1.07
2023-02-27T06:12:21.434Z,1.18
2023-02-27T06:17:45.061Z,1.25
2023-02-27T06:22:48.478Z,1.22
2023-02-27T06:27:51.661Z,1.19
2023-02-27T06:33:06.161Z,1.18
2023-02-27T06:38:09.519Z,1.16
2023-02-27T06:43:34.905Z,1.18
2023-02-27T06:48:38.235Z,1.24
2023-02-27T06:53:54.155Z,1.27
2023-02-27T06:58:59.484Z,1.25
2023-02-27T07:04:02.892Z,1.33
2023-02-27T07:09:20.644Z,1.51
2023-02-27T07:14:34.953Z,1.60
2023-02-27T07:19:41.443Z,1.71
2023-02-27T07:25:16.621Z,1.83
2023-02-27T07:30:22.900Z,2.07
2023-02-27T07:35:26.514Z,2.34
2023-02-27T07:40:29.927Z,2.61
2023-02-27T07:45:43.284Z,2.76
2023-02-27T07:50:49.286Z,2.87
2023-02-27T07:55:53.176Z,2.89
2023-02-27T08:01:16.910Z,2.98
2023-02-27T08:06:40.950Z,2.89
2023-02-27T08:11:44.339Z,2.78
2023-02-27T08:16:50.156Z,2.80
2023-02-27T08:21:53.335Z,2.97
2023-02-27T08:26:57.448Z,3.03
2023-02-27T08:32:02.596Z,2.94
2023-02-27T08:37:26.034Z,2.89
2023-02-27T08:42:51.732Z,2.79
2023-02-27T08:47:55.142Z,2.80
2023-02-27T08:53:00.893Z,2.82
2023-02-27T08:58:36.006Z,2.90
2023-02-27T09:04:08.886Z,3.01
2023-02-27T09:10:01.094Z,3.03
2023-02-27T09:15:09.055Z,3.02
2023-02-27T09:20:19.111Z,3.05
2023-02-27T09:25:33.329Z,3.04
2023-02-27T09:31:32.950Z,3.08
2023-02-27T09:37:12.793Z,3.16
2023-02-27T09:42:54.212Z,3.05
2023-02-27T09:48:18.211Z,3.07
2023-02-27T09:53:50.687Z,3.22
2023-02-27T09:59:17.189Z,3.21
2023-02-27T10:04:43.459Z,3.28
2023-02-27T10:10:14.305Z,3.15
2023-02-27T10:15:31.236Z,3.17
2023-02-27T10:20:42.850Z,3.16
2023-02-27T10:25:49.983Z,3.13
2023-02-27T10:30:59.936Z,3.21
2023-02-27T10:37:14.900Z,3.34
2023-02-27T10:42:18.767Z,3.55
2023-02-27T10:47:24.970Z,3.54
2023-02-27T10:52:28.450Z,3.51
2023-02-27T10:57:39.786Z,3.43
2023-02-27T11:02:52.112Z,3.29
2023-02-27T11:08:10.653Z,3.17
2023-02-27T11:13:40.217Z,3.12
2023-02-27T11:18:52.520Z,3.12
2023-02-27T11:24:32.832Z,3.07
2023-02-27T11:30:39.668Z,2.99
2023-02-27T11:36:07.230Z,2.90
2023-02-27T11:41:11.188Z,2.84
2023-02-27T11:46:48.525Z,2.80
2023-02-27T11:52:16.309Z,2.77
2023-02-27T11:57:32.731Z,2.76
2023-02-27T12:02:46.753Z,2.79
2023-02-27T12:08:22.461Z,2.76
2023-02-27T12:13:30.282Z,2.72
2023-02-27T12:18:43.731Z,2.71
2023-02-27T12:24:32.948Z,2.67
2023-02-27T12:29:41.669Z,2.70
2023-02-27T12:35:06.023Z,2.78
2023-02-27T12:40:36.468Z,2.74
2023-02-27T12:46:38.094Z,2.71
2023-02-27T12:52:39.136Z,2.75
2023-02-27T12:58:13.206Z,2.69
2023-02-27T13:03:26.696Z,2.78
2023-02-27T13:08:50.993Z,2.75
2023-02-27T13:14:13.110Z,2.69
2023-02-27T13:20:29.650Z,2.63
2023-02-27T13:26:35.774Z,2.65
2023-02-27T13:32:43.221Z,2.63
2023-02-27T13:38:28.673Z,2.63
2023-02-27T13:43:51.746Z,2.62
2023-02-27T13:49:29.823Z,2.64
2023-02-27T13:54:59.902Z,2.69
2023-02-27T14:00:31.740Z,2.68
2023-02-27T14:05:43.220Z,2.62
2023-02-27T14:11:00.469Z,2.49
2023-02-27T14:16:19.940Z,2.47
2023-02-27T14:22:39.231Z,2.45
2023-02-27T14:28:10.982Z,2.44
2023-02-27T14:33:42.452Z,2.41
2023-02-27T14:38:58.357Z,2.35
2023-02-27T14:44:02.153Z,2.35
2023-02-27T14:49:20.944Z,2.36
2023-02-27T14:54:26.457Z,2.30
2023-02-27T14:59:48.724Z,2.25
2023-02-27T15:06:04.103Z,2.20
2023-02-27T15:11:15.444Z,2.17
2023-02-27T15:16:24.816Z,2.16
2023-02-27T15:21:33.993Z,2.13
2023-02-27T15:26:48.220Z,2.10
2023-02-27T15:32:03.920Z,2.03
2023-02-27T15:37:07.552Z,2.00
2023-02-27T15:42:49.944Z,1.98
2023-02-27T15:47:53.586Z,1.95
2023-02-27T15:53:17.155Z,1.89
2023-02-27T15:59:08.590Z,1.87
2023-02-27T16:04:39.540Z,1.91
2023-02-27T16:10:11.047Z,1.90
2023-02-27T16:15:31.464Z,1.86
2023-02-27T16:21:14.720Z,1.85
2023-02-27T16:27:09.879Z,1.75
2023-02-27T16:32:44.848Z,1.62
2023-02-27T16:37:53.642Z,1.55
2023-02-27T16:43:03.902Z,1.45
2023-02-27T16:48:26.205Z,1.43
2023-02-27T16:54:30.176Z,1.40
2023-02-27T17:00:02.709Z,1.40
2023-02-27T17:05:49.481Z,1.44
2023-02-27T17:11:05.585Z,1.39
2023-02-27T17:16:19.007Z,1.35
2023-02-27T17:21:43.271Z,1.35
2023-02-27T17:27:01.009Z,1.31
2023-02-27T17:32:34.873Z,1.24
2023-02-27T17:37:50.781Z,1.26
2023-02-27T17:43:53.702Z,1.25
2023-02-27T17:49:18.400Z,1.24
2023-02-27T17:54:44.690Z,1.26
2023-02-27T18:00:41.714Z,1.24
2023-02-27T18:06:21.699Z,1.19
2023-02-27T18:11:25.238Z,1.18
2023-02-27T18:16:38.851Z,1.14
2023-02-27T18:21:58.706Z,1.10
2023-02-27T18:27:02.493Z,1.11
2023-02-27T18:32:15.844Z,1.15
2023-02-27T18:37:29.580Z,1.16
2023-02-27T18:42:59.071Z,1.16
2023-02-27T18:48:32.998Z,1.13
2023-02-27T18:53:41.445Z,1.12
2023-02-27T18:59:48.596Z,1.10
2023-02-27T19:05:45.583Z,1.09
2023-02-27T19:10:58.295Z,1.06
2023-02-27T19:16:22.221Z,1.04
2023-02-27T19:21:26.870Z,1.05
2023-02-27T19:26:43.935Z,1.06
2023-02-27T19:31:52.656Z,1.05
2023-02-27T19:37:12.470Z,1.04
2023-02-27T19:42:18.340Z,1.02
2023-02-27T19:48:24.948Z,0.98
2023-02-27T19:53:48.974Z,0.96
2023-02-27T19:58:55.239Z,0.98
2023-02-27T20:05:13.116Z,0.95
2023-02-27T20:11:17.453Z,0.89
2023-02-27T20:16:35.617Z,0.84
2023-02-27T20:21:49.440Z,0.80
2023-02-27T20:27:03.099Z,0.75
2023-02-27T20:32:39.430Z,0.71
2023-02-27T20:38:31.089Z,0.62
2023-02-27T20:43:40.067Z,0.55
2023-02-27T20:48:56.794Z,0.50
2023-02-27T20:54:23.575Z,0.43
2023-02-27T20:59:50.352Z,0.33
2023-02-27T21:05:14.528Z,0.27
2023-02-27T21:11:28.897Z,0.21
2023-02-27T21:17:29.702Z,0.14
2023-02-27T21:23:43.797Z,0.07
2023-02-27T21:29:25.379Z,0.02
2023-02-27T21:35:22.096Z,-0.03
2023-02-27T21:41:18.537Z,-0.11
2023-02-27T21:46:21.997Z,-0.22
2023-02-27T21:51:38.762Z,-0.27
2023-02-27T21:56:46.930Z,-0.31
2023-02-27T22:02:14.959Z,-0.39
2023-02-27T22:07:21.862Z,-0.49
2023-02-27T22:12:25.197Z,-0.53
2023-02-27T22:17:28.427Z,-0.54
2023-02-27T22:23:02.008Z,-0.40
2023-02-27T22:28:07.915Z,-0.41
2023-02-27T22:33:54.147Z,-0.50
2023-02-27T22:39:10.444Z,-0.67
2023-02-27T22:44:17.022Z,-0.79
2023-02-27T22:49:23.588Z,-0.90
2023-02-27T22:55:27.725Z,-1.01
2023-02-27T23:00:54.609Z,-1.09
2023-02-27T23:06:43.094Z,-1.14
2023-02-27T23:11:56.158Z,-1.24
2023-02-27T23:17:08.454Z,-1.30
2023-02-27T23:22:14.716Z,-1.32
2023-02-27T23:27:41.145Z,-1.36
2023-02-27T23:33:20.947Z,-1.47
2023-02-27T23:38:28.445Z,-1.52
2023-02-27T23:43:42.110Z,-1.41
2023-02-27T23:48:48.721Z,-1.45
2023-02-27T23:54:02.248Z,-1.54
2023-02-27T23:59:11.014Z,-1.62
